Hauptseite
METAR-TAF:

METAR-TAF

Flughäfen :

Ansbach, Deutschland

Flugplatz Ansbach-Katterbach

Breite: 49-19N, Länge: 010-38E, Höhe: 467 m

Beobachtung

Neuester Wetterbericht von vor 41 Minuten, um 14:56 UTC
Windstille
Temperatur 25°C
Luftfeuchtigkeit 34%
Luftdruck 1019 hPa
Sichtweite 10 km oder mehr
Himmel klar

METAR: ETEB 211456Z AUTO 00000KT 9999 CLR 25/08 A3009 RMK AO2 SLP189 T02470082 $

Zeit: 17:37 (15:37 UTC)

Prognose

Neuester Wetterbericht von vor 26 Stunden und 41 Minuten, um 12:56 UTC
Gültige Prognose vom 20 um 12 UTC bis 21 um 11 UTC
Wind 9 kt aus Ost
Sichtweite: 2221 m
Himmel klar

TAF: ETEB 201256Z 2012/2111 10009KT 9999 SKC QNH3017INS TX25/2014Z TN06/2105Z LAST NO AMDS AFT 2012 NEXT 2221

Wetterbeobachtungen und Prognosen von mehr als 4000 Flughäfen (METAR und TAF Bericht).

Die verfügbaren Stationen werden durch gelbe und rote Markierungen auf der Karte dargestellt.

Führen Sie die Maus auf sie, um den Namen der Station zu sehen.

Darauf klicken, um die Beobachtung von Wetterbeobachtungen und Prognosen zu sehen.

Um die Karte zu ändern : klicken Sie auf den grünen Tasten mit einem schwarzen Kreuz Zum Vergrößern, auf den grünen Button mit einem Gedankenstrich zu verkleinern, oder auf die grünen Pfeile für benachbarte Karten.


METAR-TAF: